Time;durP1;ratioP1;P1;durP2;ratioP2;P2;SDS_P1;SDS_P2;PMS_P1;PMS_P2;Temp;Humidity;BMP_temperature;BMP_pressure;BME280_temperature;BME280_humidity;BME280_pressure;Samples;Min_cycle;Max_cycle;Signal;HPM_P1;HPM_P2
2022/07/02 00:02:50;;;;;;;;;;;;;;;;;;12648254;28;20035;-83
2022/07/02 00:08:52;;;;;;;1.00;0.87;;;;;;;;;;12635766;28;19915;-83
2022/07/02 00:14:55;;;;;;;0.80;0.80;;;;;;;;;;12629509;28;20488;-83
2022/07/02 00:20:57;;;;;;;1.38;0.88;;;;;;;;;;12629122;28;20032;-78
2022/07/02 00:26:58;;;;;;;;;;;;;;;;;;12647272;28;20032;-83
2022/07/02 00:33:03;;;;;;;3.20;1.00;;;;;;;;;;12646467;28;19916;-82
2022/07/02 00:39:05;;;;;;;1.80;1.00;;;;;;;;;;12649008;28;20047;-78
2022/07/02 00:45:07;;;;;;;2.72;1.00;;;;;;;;;;12627612;28;20036;-78
2022/07/02 00:51:08;;;;;;;;;;;;;;;;;;12645661;28;20054;-78
2022/07/02 00:57:11;;;;;;;0.70;0.60;;;;;;;;;;12645639;28;19915;-78
2022/07/02 01:03:13;;;;;;;1.10;1.00;;;;;;;;;;12644743;28;20028;-83
2022/07/02 01:15:37;;;;;;;;;;;;;;;;;;12652291;28;20431;-79
2022/07/02 01:21:39;;;;;;;1.48;1.08;;;;;;;;;;12645002;28;20287;-79
2022/07/02 01:27:41;;;;;;;1.52;1.20;;;;;;;;;;12609460;28;20032;-78
2022/07/02 01:33:43;;;;;;;2.35;1.10;;;;;;;;;;12626700;28;20040;-83
2022/07/02 01:39:45;;;;;;;2.28;1.05;;;;;;;;;;12609300;28;20056;-83
2022/07/02 01:45:47;;;;;;;1.27;0.90;;;;;;;;;;12609455;28;20036;-78
2022/07/02 01:51:49;;;;;;;1.70;0.90;;;;;;;;;;12643454;28;20046;-78
2022/07/02 01:57:51;;;;;;;2.60;1.08;;;;;;;;;;12608921;28;20411;-78
2022/07/02 02:03:53;;;;;;;2.80;1.05;;;;;;;;;;12643264;28;20036;-78
2022/07/02 02:09:54;;;;;;;2.30;1.00;;;;;;;;;;12644093;28;20047;-83
2022/07/02 02:15:56;;;;;;;;;;;;;;;;;;12633178;28;20404;-83
2022/07/02 02:21:58;;;;;;;1.30;1.07;;;;;;;;;;12635151;28;19919;-79
2022/07/02 02:27:59;;;;;;;;;;;;;;;;;;12635276;28;20036;-79
2022/07/02 02:34:01;;;;;;;1.27;1.10;;;;;;;;;;12652069;28;20390;-79
2022/07/02 02:40:03;;;;;;;2.08;1.08;;;;;;;;;;12652156;28;20407;-79
2022/07/02 02:46:05;;;;;;;;;;;;;;;;;;12634349;28;20032;-78
2022/07/02 02:52:07;;;;;;;2.25;1.27;;;;;;;;;;12650994;28;19927;-78
2022/07/02 02:58:08;;;;;;;;;;;;;;;;;;12633054;28;20032;-78
2022/07/02 03:04:10;;;;;;;2.80;1.20;;;;;;;;;;12632703;28;19915;-78
2022/07/02 03:10:12;;;;;;;;;;;;;;;;;;12652374;28;20043;-79
2022/07/02 03:16:14;;;;;;;1.90;1.10;;;;;;;;;;12632372;28;20399;-79
2022/07/02 03:22:15;;;;;;;1.10;1.10;;;;;;;;;;12650031;28;20043;-78
2022/07/02 03:28:17;;;;;;;1.48;1.13;;;;;;;;;;12614662;28;20032;-78
2022/07/02 03:34:19;;;;;;;1.67;1.20;;;;;;;;;;12649322;28;20036;-79
2022/07/02 03:40:20;;;;;;;3.35;1.17;;;;;;;;;;12649105;28;20055;-78
2022/07/02 03:46:22;;;;;;;;;;;;;;;;;;12649310;28;20036;-79
2022/07/02 03:52:24;;;;;;;2.03;1.10;;;;;;;;;;12648672;28;20405;-84
2022/07/02 03:58:25;;;;;;;1.63;1.10;;;;;;;;;;12674273;28;20043;-83
2022/07/02 04:04:27;;;;;;;;;;;;;;;;;;12656577;28;20032;-84
2022/07/02 04:10:29;;;;;;;2.07;1.20;;;;;;;;;;12648981;28;20296;-84
2022/07/02 04:16:30;;;;;;;1.55;1.15;;;;;;;;;;12629355;28;20044;-79
2022/07/02 04:22:32;;;;;;;1.88;1.42;;;;;;;;;;12648250;28;20508;-84
2022/07/02 04:28:34;;;;;;;1.30;1.20;;;;;;;;;;12629097;28;20038;-79
2022/07/02 04:34:36;;;;;;;2.97;1.25;;;;;;;;;;12611088;28;20051;-79
2022/07/02 04:40:37;;;;;;;1.75;1.00;;;;;;;;;;12611469;28;20048;-79
2022/07/02 04:46:39;;;;;;;;;;;;;;;;;;12646042;28;20024;-79
2022/07/02 04:52:41;;;;;;;1.97;0.93;;;;;;;;;;12627574;28;19923;-79
2022/07/02 04:58:43;;;;;;;0.70;0.70;;;;;;;;;;12627322;28;20032;-79
2022/07/02 05:04:44;;;;;;;1.90;1.15;;;;;;;;;;12627293;28;20403;-83
2022/07/02 05:10:46;;;;;;;;;;;;;;;;;;12648531;28;20044;-83
2022/07/02 05:16:47;;;;;;;1.63;1.03;;;;;;;;;;12645780;28;20287;-83
2022/07/02 05:22:49;;;;;;;;;;;;;;;;;;12611813;28;20032;-83
2022/07/02 05:28:51;;;;;;;1.97;1.10;;;;;;;;;;12627930;28;20368;-83
2022/07/02 05:34:52;;;;;;;;;;;;;;;;;;12644688;28;20051;-83
2022/07/02 05:40:54;;;;;;;1.05;0.95;;;;;;;;;;12644010;28;19920;-83
2022/07/02 05:46:56;;;;;;;;;;;;;;;;;;12628600;28;20032;-79
2022/07/02 05:52:58;;;;;;;1.58;0.90;;;;;;;;;;12619387;28;20177;-79
2022/07/02 05:59:00;;;;;;;;;;;;;;;;;;12636754;28;20035;-79
2022/07/02 06:07:38;;;;;;;1.67;0.82;;;;;;;;;;12653370;28;19908;-79
2022/07/02 06:11:26;;;;;;;0.85;0.80;;;;;;;;;;12654358;28;20043;-79
2022/07/02 06:17:27;;;;;;;0.75;0.55;;;;;;;;;;12634398;28;20039;-79
2022/07/02 06:23:29;;;;;;;1.67;0.77;;;;;;;;;;12653318;28;20036;-79
2022/07/02 06:29:31;;;;;;;1.00;0.65;;;;;;;;;;12634284;28;20047;-79
2022/07/02 06:35:33;;;;;;;2.38;1.25;;;;;;;;;;12633776;28;20050;-79
2022/07/02 06:47:54;;;;;;;1.70;1.00;;;;;;;;;;12651745;28;20036;-79
2022/07/02 06:54:00;;;;;;;1.70;1.05;;;;;;;;;;12617112;28;20044;-79
2022/07/02 07:00:01;;;;;;;1.75;0.80;;;;;;;;;;12650175;28;20035;-79
2022/07/02 07:06:03;;;;;;;2.20;0.90;;;;;;;;;;12651250;28;20036;-79
2022/07/02 07:12:06;;;;;;;1.52;0.90;;;;;;;;;;12650658;28;20395;-83
2022/07/02 07:18:07;;;;;;;1.98;0.80;;;;;;;;;;12632201;28;20396;-83
2022/07/02 07:24:09;;;;;;;2.45;1.40;;;;;;;;;;12649469;28;20384;-79
2022/07/02 07:30:11;;;;;;;1.88;1.23;;;;;;;;;;12649385;28;20028;-79
2022/07/02 07:36:13;;;;;;;2.63;1.35;;;;;;;;;;12614272;28;20044;-82
2022/07/02 07:42:15;;;;;;;2.45;1.15;;;;;;;;;;12614849;28;20048;-83
2022/07/02 07:48:17;;;;;;;3.00;1.15;;;;;;;;;;12649250;28;20032;-79
2022/07/02 07:54:18;;;;;;;1.20;0.80;;;;;;;;;;12630300;28;20499;-79
2022/07/02 08:00:20;;;;;;;1.48;1.13;;;;;;;;;;12629606;28;20031;-79
2022/07/02 08:06:22;;;;;;;1.98;0.90;;;;;;;;;;12629755;28;20354;-79
2022/07/02 08:12:24;;;;;;;1.38;0.98;;;;;;;;;;12646266;28;20431;-83
2022/07/02 08:18:26;;;;;;;1.73;0.93;;;;;;;;;;12612248;28;20028;-83
2022/07/02 08:24:29;;;;;;;1.88;1.20;;;;;;;;;;12629373;28;20498;-83
2022/07/02 08:30:30;;;;;;;4.18;1.27;;;;;;;;;;12647957;28;20050;-79
2022/07/02 08:36:32;;;;;;;2.30;1.05;;;;;;;;;;12646737;28;20492;-79
2022/07/02 08:42:35;;;;;;;5.40;2.10;;;;;;;;;;12611241;28;20066;-83
2022/07/02 08:48:39;;;;;;;2.28;1.20;;;;;;;;;;12611329;28;20028;-82
2022/07/02 08:54:41;;;;;;;2.42;1.40;;;;;;;;;;12626981;28;20392;-83
2022/07/02 09:00:43;;;;;;;1.35;1.00;;;;;;;;;;12628361;28;20040;-79
2022/07/02 09:06:46;;;;;;;2.78;1.45;;;;;;;;;;12610492;28;20039;-78
2022/07/02 09:12:48;;;;;;;4.15;1.10;;;;;;;;;;12645146;28;20055;-78
2022/07/02 09:18:50;;;;;;;2.58;1.10;;;;;;;;;;12626595;28;20032;-78
2022/07/02 09:24:51;;;;;;;2.85;1.25;;;;;;;;;;12625957;28;20379;-79
2022/07/02 09:31:02;;;;;;;1.90;0.80;;;;;;;;;;12645597;28;20356;-78
2022/07/02 09:37:12;;;;;;;1.00;0.80;;;;;;;;;;12609187;28;20055;-79
2022/07/02 09:43:23;;;;;;;2.90;1.10;;;;;;;;;;12625821;28;20471;-79
2022/07/02 09:49:25;;;;;;;2.75;1.10;;;;;;;;;;12625443;28;20055;-79
2022/07/02 09:55:28;;;;;;;2.63;1.17;;;;;;;;;;12625169;28;20067;-79
2022/07/02 10:01:30;;;;;;;2.08;1.20;;;;;;;;;;12608419;28;20271;-79
2022/07/02 10:07:32;;;;;;;3.33;0.90;;;;;;;;;;12635114;28;20040;-79
2022/07/02 10:13:34;;;;;;;2.08;1.10;;;;;;;;;;12624699;28;20048;-79
2022/07/02 10:19:37;;;;;;;3.22;1.02;;;;;;;;;;12624956;28;20036;-79
2022/07/02 10:25:39;;;;;;;1.20;0.80;;;;;;;;;;12625154;28;20040;-79
2022/07/02 10:31:43;;;;;;;3.83;1.50;;;;;;;;;;12642680;28;20032;-79
2022/07/02 10:37:45;;;;;;;3.42;1.10;;;;;;;;;;12632351;28;20059;-79
2022/07/02 10:43:46;;;;;;;3.20;1.40;;;;;;;;;;12651499;28;20028;-78
2022/07/02 10:49:59;;;;;;;2.03;1.05;;;;;;;;;;12633506;28;20031;-79
2022/07/02 10:56:04;;;;;;;2.05;1.20;;;;;;;;;;12632642;28;20051;-79
2022/07/02 11:02:07;;;;;;;2.38;0.82;;;;;;;;;;12632765;28;20043;-79
2022/07/02 11:08:28;;;;;;;4.85;1.05;;;;;;;;;;12651553;28;20043;-79
2022/07/02 11:14:30;;;;;;;1.92;0.80;;;;;;;;;;12650215;28;20043;-83
2022/07/02 11:20:35;;;;;;;2.13;0.93;;;;;;;;;;12650153;28;20468;-83
2022/07/02 11:26:40;;;;;;;2.53;1.02;;;;;;;;;;12631784;28;20035;-82
2022/07/02 11:32:42;;;;;;;2.85;0.95;;;;;;;;;;12631466;28;20389;-82
2022/07/02 11:38:45;;;;;;;1.85;0.70;;;;;;;;;;12615068;28;20063;-82
2022/07/02 11:44:47;;;;;;;2.55;0.98;;;;;;;;;;12648555;28;20035;-82
2022/07/02 11:50:59;;;;;;;3.92;1.23;;;;;;;;;;12631012;28;20032;-82
2022/07/02 11:57:00;;;;;;;2.33;0.90;;;;;;;;;;12629707;28;20040;-81
2022/07/02 12:03:09;;;;;;;1.95;0.82;;;;;;;;;;12648014;28;20031;-82
2022/07/02 12:09:12;;;;;;;0.98;0.60;;;;;;;;;;12649052;28;20047;-83
2022/07/02 12:15:14;;;;;;;2.22;0.77;;;;;;;;;;12629577;28;20051;-83
2022/07/02 12:21:19;;;;;;;3.13;0.82;;;;;;;;;;12629546;28;20032;-79
2022/07/02 12:27:23;;;;;;;2.33;0.68;;;;;;;;;;12628966;28;20054;-79
2022/07/02 12:33:34;;;;;;;2.22;0.80;;;;;;;;;;12647154;28;20044;-79
2022/07/02 12:39:40;;;;;;;2.25;0.60;;;;;;;;;;12646887;28;20063;-79
2022/07/02 12:45:42;;;;;;;1.55;1.00;;;;;;;;;;12611054;28;20040;-79
2022/07/02 12:52:01;;;;;;;2.15;0.98;;;;;;;;;;12645436;28;20031;-78
2022/07/02 12:58:04;;;;;;;1.27;0.50;;;;;;;;;;12645161;28;20039;-79
2022/07/02 13:04:06;;;;;;;1.42;0.68;;;;;;;;;;12644940;28;20024;-79
2022/07/02 13:10:08;;;;;;;2.00;0.70;;;;;;;;;;12627260;28;20051;-79
2022/07/02 13:16:10;;;;;;;1.23;0.68;;;;;;;;;;12626468;28;20515;-79
2022/07/02 13:22:15;;;;;;;3.63;0.63;;;;;;;;;;12626477;28;20483;-79
2022/07/02 13:28:17;;;;;;;1.45;0.90;;;;;;;;;;12645145;28;20135;-80
2022/07/02 13:34:18;;;;;;;1.05;0.60;;;;;;;;;;12626024;28;20044;-79
2022/07/02 13:40:21;;;;;;;2.25;0.70;;;;;;;;;;12625755;28;20052;-78
2022/07/02 13:46:23;;;;;;;0.77;0.50;;;;;;;;;;12643791;28;20667;-82
2022/07/02 13:52:25;;;;;;;1.10;0.77;;;;;;;;;;12608905;28;20032;-82
2022/07/02 13:58:26;;;;;;;1.50;0.90;;;;;;;;;;12643398;28;20044;-82
2022/07/02 14:04:28;;;;;;;2.40;0.80;;;;;;;;;;12625215;28;20403;-82
2022/07/02 14:10:30;;;;;;;3.00;1.10;;;;;;;;;;12651310;28;20460;-82
2022/07/02 14:16:32;;;;;;;2.00;1.00;;;;;;;;;;12653701;28;20043;-83
2022/07/02 14:22:33;;;;;;;2.05;0.88;;;;;;;;;;12635421;28;20047;-82
2022/07/02 14:28:35;;;;;;;2.90;1.35;;;;;;;;;;12653468;28;20028;-82
2022/07/02 14:34:37;;;;;;;2.33;1.20;;;;;;;;;;12652394;28;20052;-83
2022/07/02 14:40:39;;;;;;;2.45;1.48;;;;;;;;;;12652917;28;20049;-83
2022/07/02 14:46:42;;;;;;;1.55;1.00;;;;;;;;;;12651581;28;20043;-82
2022/07/02 14:52:44;;;;;;;1.35;0.85;;;;;;;;;;12651536;28;20035;-83
2022/07/02 14:58:45;;;;;;;2.40;1.00;;;;;;;;;;12651474;28;20032;-83
2022/07/02 15:04:47;;;;;;;3.72;1.60;;;;;;;;;;12633280;28;20032;-83
2022/07/02 15:10:49;;;;;;;2.15;1.33;;;;;;;;;;12651216;28;20460;-82
2022/07/02 15:16:50;;;;;;;3.40;1.40;;;;;;;;;;12632852;28;20043;-82
2022/07/02 15:22:55;;;;;;;1.58;1.00;;;;;;;;;;12649118;28;20031;-82
2022/07/02 15:28:57;;;;;;;1.75;1.00;;;;;;;;;;12631818;28;20028;-82
2022/07/02 15:35:02;;;;;;;1.73;1.00;;;;;;;;;;12649004;28;20074;-82
2022/07/02 15:41:04;;;;;;;2.55;1.20;;;;;;;;;;12630471;28;20059;-82
2022/07/02 15:47:07;;;;;;;2.28;1.20;;;;;;;;;;12648806;28;20404;-83
2022/07/02 15:53:13;;;;;;;3.55;1.08;;;;;;;;;;12613809;28;20043;-83
2022/07/02 15:59:16;;;;;;;2.25;1.20;;;;;;;;;;12648533;28;20059;-83
2022/07/02 16:05:18;;;;;;;1.65;1.00;;;;;;;;;;12631112;28;20028;-82
2022/07/02 16:11:21;;;;;;;2.72;1.13;;;;;;;;;;12630881;28;20039;-83
2022/07/02 16:17:23;;;;;;;2.30;1.10;;;;;;;;;;12629355;28;20036;-83
2022/07/02 16:23:26;;;;;;;2.67;1.20;;;;;;;;;;12629427;28;20044;-83
2022/07/02 16:29:28;;;;;;;2.50;1.05;;;;;;;;;;12612008;28;20388;-83
2022/07/02 16:35:32;;;;;;;1.73;1.00;;;;;;;;;;12645260;28;20047;-83
2022/07/02 16:41:37;;;;;;;3.88;1.48;;;;;;;;;;12628640;28;20500;-83
2022/07/02 16:47:39;;;;;;;1.73;1.15;;;;;;;;;;12627772;28;20032;-83
2022/07/02 16:53:41;;;;;;;2.17;1.48;;;;;;;;;;12611005;28;20039;-83
2022/07/02 16:59:43;;;;;;;2.13;1.17;;;;;;;;;;12627647;28;20032;-83
2022/07/02 17:05:45;;;;;;;2.40;1.10;;;;;;;;;;12644809;28;20032;-84
2022/07/02 17:11:47;;;;;;;2.30;1.15;;;;;;;;;;12644917;28;20031;-80
2022/07/02 17:17:48;;;;;;;2.40;1.10;;;;;;;;;;12626814;28;20047;-80
2022/07/02 17:23:50;;;;;;;1.75;1.00;;;;;;;;;;12626576;28;20032;-80
2022/07/02 17:29:52;;;;;;;2.50;1.30;;;;;;;;;;12644506;28;20043;-83
2022/07/02 17:35:54;;;;;;;2.22;1.08;;;;;;;;;;12643806;28;20047;-83
2022/07/02 17:41:56;;;;;;;3.65;1.33;;;;;;;;;;12629052;28;20417;-83
2022/07/02 17:47:58;;;;;;;2.65;0.95;;;;;;;;;;12660670;28;20028;-83
2022/07/02 17:54:00;;;;;;;2.95;1.08;;;;;;;;;;12660681;28;20040;-83
2022/07/02 18:00:02;;;;;;;2.75;1.33;;;;;;;;;;12661281;28;20028;-83
2022/07/02 18:06:11;;;;;;;3.85;1.20;;;;;;;;;;12660068;28;20032;-83
2022/07/02 18:12:13;;;;;;;3.63;1.50;;;;;;;;;;12642851;28;20031;-83
2022/07/02 18:18:15;;;;;;;2.97;1.17;;;;;;;;;;12641793;28;20040;-79
2022/07/02 18:24:17;;;;;;;3.20;1.30;;;;;;;;;;12659779;28;20040;-79
2022/07/02 18:30:18;;;;;;;4.10;1.50;;;;;;;;;;12642098;28;20047;-78
2022/07/02 18:36:20;;;;;;;6.40;1.80;;;;;;;;;;12641666;28;20051;-79
2022/07/02 18:42:22;;;;;;;4.28;1.75;;;;;;;;;;12660702;28;20091;-78
2022/07/02 18:48:24;;;;;;;3.85;1.60;;;;;;;;;;12641661;28;20391;-78
2022/07/02 18:54:25;;;;;;;2.67;1.40;;;;;;;;;;12655478;28;20036;-78
2022/07/02 19:00:28;;;;;;;3.65;1.20;;;;;;;;;;12650859;28;20036;-78
2022/07/02 19:06:30;;;;;;;3.72;1.50;;;;;;;;;;12650985;28;20044;-78
2022/07/02 19:12:32;;;;;;;2.67;1.60;;;;;;;;;;12644265;28;20073;-82
2022/07/02 19:18:34;;;;;;;3.83;1.50;;;;;;;;;;12637596;28;20369;-83
2022/07/02 19:24:35;;;;;;;4.28;2.63;;;;;;;;;;12650070;28;20028;-83
2022/07/02 19:30:37;;;;;;;5.13;1.80;;;;;;;;;;12615066;28;20028;-82
2022/07/02 19:36:39;;;;;;;4.07;1.50;;;;;;;;;;12630814;28;20048;-82
2022/07/02 19:42:41;;;;;;;2.92;1.50;;;;;;;;;;12648764;28;20062;-82
2022/07/02 19:48:43;;;;;;;3.10;1.60;;;;;;;;;;12630904;28;20032;-82
2022/07/02 19:54:48;;;;;;;4.20;1.80;;;;;;;;;;12630517;28;20044;-82
2022/07/02 20:00:49;;;;;;;3.70;1.83;;;;;;;;;;12648193;28;20039;-82
2022/07/02 20:06:51;;;;;;;5.47;2.13;;;;;;;;;;12648549;28;20391;-83
2022/07/02 20:12:53;;;;;;;4.15;1.85;;;;;;;;;;12629748;28;20038;-82
2022/07/02 20:18:55;;;;;;;3.83;2.00;;;;;;;;;;12629333;28;20051;-78
2022/07/02 20:24:56;;;;;;;3.70;1.42;;;;;;;;;;12628994;28;20499;-78
2022/07/02 20:30:58;;;;;;;2.50;1.42;;;;;;;;;;12628571;28;20047;-78
2022/07/02 20:37:00;;;;;;;2.88;1.60;;;;;;;;;;12646422;28;20052;-78
2022/07/02 20:43:01;;;;;;;2.75;1.50;;;;;;;;;;12646179;28;20032;-78
2022/07/02 20:49:07;;;;;;;3.90;1.77;;;;;;;;;;12645843;28;20423;-82
2022/07/02 20:55:08;;;;;;;5.10;1.73;;;;;;;;;;12628031;28;20040;-82
2022/07/02 21:01:10;;;;;;;4.38;1.70;;;;;;;;;;12645342;28;20032;-78
2022/07/02 21:07:12;;;;;;;4.78;1.55;;;;;;;;;;12645148;28;20396;-78
2022/07/02 21:13:14;;;;;;;2.92;1.48;;;;;;;;;;12644900;28;20043;-78
2022/07/02 21:19:16;;;;;;;3.38;1.40;;;;;;;;;;12644770;28;20036;-82
2022/07/02 21:25:17;;;;;;;3.90;1.58;;;;;;;;;;12626664;28;20217;-78
2022/07/02 21:31:20;;;;;;;3.40;1.80;;;;;;;;;;12644541;28;20039;-78
2022/07/02 21:37:23;;;;;;;3.20;1.90;;;;;;;;;;12644335;28;20404;-78
2022/07/02 21:43:25;;;;;;;4.38;2.30;;;;;;;;;;12626535;28;20051;-83
2022/07/02 21:49:26;;;;;;;4.35;2.10;;;;;;;;;;12609867;28;20376;-78
2022/07/02 21:55:28;;;;;;;2.97;1.70;;;;;;;;;;12643943;28;20044;-83
2022/07/02 22:01:30;;;;;;;4.43;2.50;;;;;;;;;;12626378;28;20032;-83
2022/07/02 22:07:32;;;;;;;3.63;2.35;;;;;;;;;;12626346;28;20040;-83
2022/07/02 22:13:33;;;;;;;4.30;2.30;;;;;;;;;;12625974;28;20040;-78
2022/07/02 22:19:35;;;;;;;5.47;2.40;;;;;;;;;;12643587;28;20043;-83
2022/07/02 22:25:37;;;;;;;3.13;2.17;;;;;;;;;;12625691;28;20040;-83
2022/07/02 22:31:39;;;;;;;4.43;2.10;;;;;;;;;;12648316;28;20054;-83
2022/07/02 22:37:41;;;;;;;3.45;2.67;;;;;;;;;;12652839;28;20063;-83
2022/07/02 22:43:43;;;;;;;4.28;2.25;;;;;;;;;;12635322;28;20024;-79
2022/07/02 22:49:44;;;;;;;4.00;2.88;;;;;;;;;;12633544;28;20040;-78
2022/07/02 22:55:46;;;;;;;2.42;2.00;;;;;;;;;;12651487;28;20040;-79
2022/07/02 23:01:48;;;;;;;3.50;2.05;;;;;;;;;;12651613;28;20032;-83
2022/07/02 23:07:50;;;;;;;2.83;2.33;;;;;;;;;;12633018;28;20395;-78
2022/07/02 23:13:52;;;;;;;5.28;2.50;;;;;;;;;;12632462;28;20637;-83
2022/07/02 23:19:53;;;;;;;2.53;2.13;;;;;;;;;;12615954;28;20385;-83
2022/07/02 23:25:55;;;;;;;3.58;1.95;;;;;;;;;;12650304;28;20506;-83
2022/07/02 23:31:57;;;;;;;2.10;1.88;;;;;;;;;;12631868;28;20028;-83
2022/07/02 23:37:59;;;;;;;2.47;1.98;;;;;;;;;;12631829;28;20059;-83
2022/07/02 23:44:01;;;;;;;2.22;1.85;;;;;;;;;;12632614;28;20028;-82
2022/07/02 23:50:05;;;;;;;4.97;2.28;;;;;;;;;;12650138;28;20051;-78
2022/07/02 23:56:07;;;;;;;2.60;2.33;;;;;;;;;;12613851;28;20047;-78
